sensor_id;sensor_type;location;lat;lon;timestamp;P1;durP1;ratioP1;P2;durP2;ratioP2
10467;SDS011;5281;48.878;9.394;2022-12-18T00:01:22;48.53;;;24.20;;
10467;SDS011;5281;48.878;9.394;2022-12-18T00:03:50;44.63;;;24.30;;
10467;SDS011;5281;48.878;9.394;2022-12-18T00:06:18;39.20;;;22.27;;
10467;SDS011;5281;48.878;9.394;2022-12-18T00:08:47;38.53;;;21.00;;
10467;SDS011;5281;48.878;9.394;2022-12-18T00:11:14;38.97;;;20.43;;
10467;SDS011;5281;48.878;9.394;2022-12-18T00:13:43;38.87;;;21.10;;
10467;SDS011;5281;48.878;9.394;2022-12-18T00:16:12;36.20;;;21.00;;
10467;SDS011;5281;48.878;9.394;2022-12-18T00:18:40;40.57;;;23.73;;
10467;SDS011;5281;48.878;9.394;2022-12-18T00:21:08;39.90;;;22.33;;
10467;SDS011;5281;48.878;9.394;2022-12-18T00:23:37;38.37;;;21.50;;
10467;SDS011;5281;48.878;9.394;2022-12-18T00:26:06;37.00;;;20.23;;
10467;SDS011;5281;48.878;9.394;2022-12-18T00:28:35;37.93;;;20.50;;
10467;SDS011;5281;48.878;9.394;2022-12-18T00:31:03;38.90;;;20.40;;
10467;SDS011;5281;48.878;9.394;2022-12-18T00:33:30;35.67;;;20.63;;
10467;SDS011;5281;48.878;9.394;2022-12-18T00:36:00;41.40;;;21.97;;
10467;SDS011;5281;48.878;9.394;2022-12-18T00:38:27;38.83;;;20.67;;
10467;SDS011;5281;48.878;9.394;2022-12-18T00:40:54;37.97;;;20.70;;
10467;SDS011;5281;48.878;9.394;2022-12-18T00:43:22;39.67;;;21.50;;
10467;SDS011;5281;48.878;9.394;2022-12-18T00:45:48;41.07;;;21.40;;
10467;SDS011;5281;48.878;9.394;2022-12-18T00:48:14;40.77;;;20.63;;
10467;SDS011;5281;48.878;9.394;2022-12-18T00:50:41;37.20;;;20.90;;
10467;SDS011;5281;48.878;9.394;2022-12-18T00:53:09;34.17;;;20.13;;
10467;SDS011;5281;48.878;9.394;2022-12-18T00:55:37;37.17;;;20.27;;
10467;SDS011;5281;48.878;9.394;2022-12-18T00:58:04;35.60;;;19.77;;
10467;SDS011;5281;48.878;9.394;2022-12-18T01:00:32;38.17;;;19.30;;
10467;SDS011;5281;48.878;9.394;2022-12-18T01:02:59;39.67;;;20.47;;
10467;SDS011;5281;48.878;9.394;2022-12-18T01:05:26;36.13;;;19.50;;
10467;SDS011;5281;48.878;9.394;2022-12-18T01:07:54;35.90;;;19.27;;
10467;SDS011;5281;48.878;9.394;2022-12-18T01:10:21;34.97;;;19.17;;
10467;SDS011;5281;48.878;9.394;2022-12-18T01:12:49;35.37;;;19.93;;
10467;SDS011;5281;48.878;9.394;2022-12-18T01:15:16;37.87;;;19.73;;
10467;SDS011;5281;48.878;9.394;2022-12-18T01:17:45;40.73;;;20.43;;
10467;SDS011;5281;48.878;9.394;2022-12-18T01:20:12;36.57;;;19.13;;
10467;SDS011;5281;48.878;9.394;2022-12-18T01:22:39;31.67;;;18.73;;
10467;SDS011;5281;48.878;9.394;2022-12-18T01:25:06;36.00;;;19.57;;
10467;SDS011;5281;48.878;9.394;2022-12-18T01:27:34;34.90;;;18.00;;
10467;SDS011;5281;48.878;9.394;2022-12-18T01:30:00;42.73;;;20.27;;
10467;SDS011;5281;48.878;9.394;2022-12-18T01:32:29;36.77;;;19.90;;
10467;SDS011;5281;48.878;9.394;2022-12-18T01:34:58;39.13;;;18.77;;
10467;SDS011;5281;48.878;9.394;2022-12-18T01:37:24;38.27;;;19.67;;
10467;SDS011;5281;48.878;9.394;2022-12-18T01:39:52;36.50;;;18.50;;
10467;SDS011;5281;48.878;9.394;2022-12-18T01:42:19;36.90;;;19.17;;
10467;SDS011;5281;48.878;9.394;2022-12-18T01:44:54;32.10;;;18.97;;
10467;SDS011;5281;48.878;9.394;2022-12-18T01:47:28;33.47;;;19.77;;
10467;SDS011;5281;48.878;9.394;2022-12-18T01:50:01;36.73;;;19.43;;
10467;SDS011;5281;48.878;9.394;2022-12-18T01:52:31;34.33;;;19.10;;
10467;SDS011;5281;48.878;9.394;2022-12-18T01:54:59;34.13;;;18.90;;
10467;SDS011;5281;48.878;9.394;2022-12-18T01:57:28;37.13;;;19.17;;
10467;SDS011;5281;48.878;9.394;2022-12-18T01:59:56;32.57;;;18.57;;
10467;SDS011;5281;48.878;9.394;2022-12-18T02:02:26;35.33;;;19.07;;
10467;SDS011;5281;48.878;9.394;2022-12-18T02:04:54;33.63;;;18.50;;
10467;SDS011;5281;48.878;9.394;2022-12-18T02:07:23;37.97;;;18.67;;
10467;SDS011;5281;48.878;9.394;2022-12-18T02:09:57;33.43;;;18.40;;
10467;SDS011;5281;48.878;9.394;2022-12-18T02:12:27;28.57;;;17.63;;
10467;SDS011;5281;48.878;9.394;2022-12-18T02:15:02;35.43;;;18.70;;
10467;SDS011;5281;48.878;9.394;2022-12-18T02:17:36;32.20;;;17.57;;
10467;SDS011;5281;48.878;9.394;2022-12-18T02:20:08;32.87;;;18.47;;
10467;SDS011;5281;48.878;9.394;2022-12-18T02:22:46;31.40;;;18.20;;
10467;SDS011;5281;48.878;9.394;2022-12-18T02:25:28;33.03;;;18.07;;
10467;SDS011;5281;48.878;9.394;2022-12-18T02:28:06;34.73;;;19.07;;
10467;SDS011;5281;48.878;9.394;2022-12-18T02:30:37;32.77;;;18.50;;
10467;SDS011;5281;48.878;9.394;2022-12-18T02:33:07;29.93;;;16.77;;
10467;SDS011;5281;48.878;9.394;2022-12-18T02:35:35;31.73;;;17.37;;
10467;SDS011;5281;48.878;9.394;2022-12-18T02:38:04;31.37;;;18.33;;
10467;SDS011;5281;48.878;9.394;2022-12-18T02:40:31;32.63;;;18.57;;
10467;SDS011;5281;48.878;9.394;2022-12-18T02:43:02;34.97;;;17.63;;
10467;SDS011;5281;48.878;9.394;2022-12-18T02:45:34;29.43;;;17.43;;
10467;SDS011;5281;48.878;9.394;2022-12-18T02:48:01;32.70;;;18.17;;
10467;SDS011;5281;48.878;9.394;2022-12-18T02:50:30;31.57;;;17.63;;
10467;SDS011;5281;48.878;9.394;2022-12-18T02:53:04;29.50;;;16.97;;
10467;SDS011;5281;48.878;9.394;2022-12-18T02:55:39;30.17;;;16.63;;
10467;SDS011;5281;48.878;9.394;2022-12-18T02:58:18;32.30;;;17.40;;
10467;SDS011;5281;48.878;9.394;2022-12-18T03:00:55;29.73;;;17.37;;
10467;SDS011;5281;48.878;9.394;2022-12-18T03:03:26;33.77;;;18.77;;
10467;SDS011;5281;48.878;9.394;2022-12-18T03:05:57;32.60;;;17.77;;
10467;SDS011;5281;48.878;9.394;2022-12-18T03:08:31;31.13;;;17.57;;
10467;SDS011;5281;48.878;9.394;2022-12-18T03:11:03;32.17;;;17.80;;
10467;SDS011;5281;48.878;9.394;2022-12-18T03:13:34;28.47;;;17.00;;
10467;SDS011;5281;48.878;9.394;2022-12-18T03:16:08;30.97;;;16.10;;
10467;SDS011;5281;48.878;9.394;2022-12-18T03:18:39;31.00;;;17.80;;
10467;SDS011;5281;48.878;9.394;2022-12-18T03:21:11;27.50;;;16.73;;
10467;SDS011;5281;48.878;9.394;2022-12-18T03:23:42;32.87;;;16.83;;
10467;SDS011;5281;48.878;9.394;2022-12-18T03:26:14;31.57;;;16.67;;
10467;SDS011;5281;48.878;9.394;2022-12-18T03:28:45;32.63;;;17.53;;
10467;SDS011;5281;48.878;9.394;2022-12-18T03:31:17;33.10;;;17.33;;
10467;SDS011;5281;48.878;9.394;2022-12-18T03:33:51;31.93;;;18.23;;
10467;SDS011;5281;48.878;9.394;2022-12-18T03:36:18;28.50;;;15.77;;
10467;SDS011;5281;48.878;9.394;2022-12-18T03:38:45;28.90;;;16.50;;
10467;SDS011;5281;48.878;9.394;2022-12-18T03:41:15;26.70;;;15.43;;
10467;SDS011;5281;48.878;9.394;2022-12-18T03:43:48;27.97;;;16.37;;
10467;SDS011;5281;48.878;9.394;2022-12-18T03:46:23;32.53;;;17.70;;
10467;SDS011;5281;48.878;9.394;2022-12-18T03:48:55;31.47;;;17.37;;
10467;SDS011;5281;48.878;9.394;2022-12-18T03:51:28;30.83;;;16.97;;
10467;SDS011;5281;48.878;9.394;2022-12-18T03:54:03;29.03;;;16.33;;
10467;SDS011;5281;48.878;9.394;2022-12-18T03:56:35;27.23;;;16.00;;
10467;SDS011;5281;48.878;9.394;2022-12-18T03:59:04;29.70;;;16.43;;
10467;SDS011;5281;48.878;9.394;2022-12-18T04:01:35;29.40;;;16.20;;
10467;SDS011;5281;48.878;9.394;2022-12-18T04:04:05;27.83;;;16.23;;
10467;SDS011;5281;48.878;9.394;2022-12-18T04:06:35;30.27;;;16.23;;
10467;SDS011;5281;48.878;9.394;2022-12-18T04:09:03;34.47;;;17.60;;
10467;SDS011;5281;48.878;9.394;2022-12-18T04:11:31;28.87;;;16.23;;
10467;SDS011;5281;48.878;9.394;2022-12-18T04:13:57;27.97;;;16.20;;
10467;SDS011;5281;48.878;9.394;2022-12-18T04:16:25;28.80;;;16.00;;
10467;SDS011;5281;48.878;9.394;2022-12-18T04:18:54;29.67;;;16.97;;
10467;SDS011;5281;48.878;9.394;2022-12-18T04:21:21;29.93;;;17.07;;
10467;SDS011;5281;48.878;9.394;2022-12-18T04:23:48;30.77;;;17.67;;
10467;SDS011;5281;48.878;9.394;2022-12-18T04:26:15;28.13;;;15.87;;
10467;SDS011;5281;48.878;9.394;2022-12-18T04:28:41;29.97;;;16.63;;
10467;SDS011;5281;48.878;9.394;2022-12-18T04:31:08;29.43;;;16.30;;
10467;SDS011;5281;48.878;9.394;2022-12-18T04:33:35;26.50;;;15.53;;
10467;SDS011;5281;48.878;9.394;2022-12-18T04:36:04;28.13;;;15.57;;
10467;SDS011;5281;48.878;9.394;2022-12-18T04:38:31;25.00;;;13.93;;
10467;SDS011;5281;48.878;9.394;2022-12-18T04:40:58;28.93;;;15.67;;
10467;SDS011;5281;48.878;9.394;2022-12-18T04:43:25;29.27;;;16.33;;
10467;SDS011;5281;48.878;9.394;2022-12-18T04:45:52;28.40;;;15.50;;
10467;SDS011;5281;48.878;9.394;2022-12-18T04:48:19;29.10;;;15.93;;
10467;SDS011;5281;48.878;9.394;2022-12-18T04:50:46;27.30;;;15.83;;
10467;SDS011;5281;48.878;9.394;2022-12-18T04:53:14;31.13;;;15.53;;
10467;SDS011;5281;48.878;9.394;2022-12-18T04:55:41;30.00;;;15.33;;
10467;SDS011;5281;48.878;9.394;2022-12-18T04:58:08;27.27;;;14.90;;
10467;SDS011;5281;48.878;9.394;2022-12-18T05:00:35;23.53;;;14.33;;
10467;SDS011;5281;48.878;9.394;2022-12-18T05:03:02;27.03;;;15.13;;
10467;SDS011;5281;48.878;9.394;2022-12-18T05:05:28;29.40;;;16.67;;
10467;SDS011;5281;48.878;9.394;2022-12-18T05:07:55;27.63;;;15.60;;
10467;SDS011;5281;48.878;9.394;2022-12-18T05:10:23;26.60;;;15.73;;
10467;SDS011;5281;48.878;9.394;2022-12-18T05:12:50;27.80;;;15.37;;
10467;SDS011;5281;48.878;9.394;2022-12-18T05:15:26;26.87;;;14.77;;
10467;SDS011;5281;48.878;9.394;2022-12-18T05:17:54;26.23;;;14.47;;
10467;SDS011;5281;48.878;9.394;2022-12-18T05:20:21;31.23;;;15.23;;
10467;SDS011;5281;48.878;9.394;2022-12-18T05:22:48;26.20;;;15.20;;
10467;SDS011;5281;48.878;9.394;2022-12-18T05:25:14;27.60;;;14.83;;
10467;SDS011;5281;48.878;9.394;2022-12-18T05:27:43;26.87;;;14.97;;
10467;SDS011;5281;48.878;9.394;2022-12-18T05:30:10;29.10;;;16.17;;
10467;SDS011;5281;48.878;9.394;2022-12-18T05:32:38;27.47;;;15.67;;
10467;SDS011;5281;48.878;9.394;2022-12-18T05:35:06;28.70;;;16.13;;
10467;SDS011;5281;48.878;9.394;2022-12-18T05:37:34;29.33;;;15.37;;
10467;SDS011;5281;48.878;9.394;2022-12-18T05:40:01;26.70;;;15.33;;
10467;SDS011;5281;48.878;9.394;2022-12-18T05:42:28;28.23;;;16.83;;
10467;SDS011;5281;48.878;9.394;2022-12-18T05:44:56;26.47;;;15.67;;
10467;SDS011;5281;48.878;9.394;2022-12-18T05:47:23;28.30;;;15.33;;
10467;SDS011;5281;48.878;9.394;2022-12-18T05:49:50;29.23;;;16.30;;
10467;SDS011;5281;48.878;9.394;2022-12-18T05:52:17;30.53;;;16.27;;
10467;SDS011;5281;48.878;9.394;2022-12-18T05:54:44;29.20;;;14.93;;
10467;SDS011;5281;48.878;9.394;2022-12-18T05:57:10;26.53;;;14.90;;
10467;SDS011;5281;48.878;9.394;2022-12-18T05:59:37;29.37;;;16.00;;
10467;SDS011;5281;48.878;9.394;2022-12-18T06:02:05;28.97;;;16.17;;
10467;SDS011;5281;48.878;9.394;2022-12-18T06:04:32;27.27;;;15.53;;
10467;SDS011;5281;48.878;9.394;2022-12-18T06:06:59;27.93;;;15.87;;
10467;SDS011;5281;48.878;9.394;2022-12-18T06:09:26;28.20;;;16.13;;
10467;SDS011;5281;48.878;9.394;2022-12-18T06:11:54;30.97;;;16.63;;
10467;SDS011;5281;48.878;9.394;2022-12-18T06:14:21;26.77;;;15.43;;
10467;SDS011;5281;48.878;9.394;2022-12-18T06:16:49;28.73;;;16.20;;
10467;SDS011;5281;48.878;9.394;2022-12-18T06:19:18;28.67;;;16.20;;
10467;SDS011;5281;48.878;9.394;2022-12-18T06:21:45;27.03;;;15.77;;
10467;SDS011;5281;48.878;9.394;2022-12-18T06:24:12;28.03;;;16.17;;
10467;SDS011;5281;48.878;9.394;2022-12-18T06:26:39;27.13;;;15.43;;
10467;SDS011;5281;48.878;9.394;2022-12-18T06:29:06;26.00;;;14.37;;
10467;SDS011;5281;48.878;9.394;2022-12-18T06:31:33;24.67;;;14.03;;
10467;SDS011;5281;48.878;9.394;2022-12-18T06:34:01;24.50;;;14.80;;
10467;SDS011;5281;48.878;9.394;2022-12-18T06:36:30;26.40;;;14.50;;
10467;SDS011;5281;48.878;9.394;2022-12-18T06:38:57;25.90;;;14.67;;
10467;SDS011;5281;48.878;9.394;2022-12-18T06:41:24;25.07;;;15.17;;
10467;SDS011;5281;48.878;9.394;2022-12-18T06:43:51;25.53;;;14.50;;
10467;SDS011;5281;48.878;9.394;2022-12-18T06:46:18;25.87;;;14.57;;
10467;SDS011;5281;48.878;9.394;2022-12-18T06:48:46;23.37;;;13.37;;
10467;SDS011;5281;48.878;9.394;2022-12-18T06:51:15;25.20;;;14.67;;
10467;SDS011;5281;48.878;9.394;2022-12-18T06:53:47;27.00;;;15.13;;
10467;SDS011;5281;48.878;9.394;2022-12-18T06:56:14;29.87;;;16.20;;
10467;SDS011;5281;48.878;9.394;2022-12-18T06:58:41;29.37;;;15.47;;
10467;SDS011;5281;48.878;9.394;2022-12-18T07:01:09;35.57;;;19.00;;
10467;SDS011;5281;48.878;9.394;2022-12-18T07:03:37;26.17;;;15.90;;
10467;SDS011;5281;48.878;9.394;2022-12-18T07:06:04;31.37;;;16.63;;
10467;SDS011;5281;48.878;9.394;2022-12-18T07:08:32;26.03;;;14.63;;
10467;SDS011;5281;48.878;9.394;2022-12-18T07:11:02;25.07;;;14.67;;
10467;SDS011;5281;48.878;9.394;2022-12-18T07:13:30;27.57;;;15.13;;
10467;SDS011;5281;48.878;9.394;2022-12-18T07:16:02;27.17;;;15.20;;
10467;SDS011;5281;48.878;9.394;2022-12-18T07:18:33;27.70;;;14.77;;
10467;SDS011;5281;48.878;9.394;2022-12-18T07:21:02;26.67;;;15.77;;
10467;SDS011;5281;48.878;9.394;2022-12-18T07:23:31;26.10;;;14.63;;
10467;SDS011;5281;48.878;9.394;2022-12-18T07:26:01;26.17;;;14.63;;
10467;SDS011;5281;48.878;9.394;2022-12-18T07:28:29;26.40;;;14.23;;
10467;SDS011;5281;48.878;9.394;2022-12-18T07:30:56;31.13;;;16.27;;
10467;SDS011;5281;48.878;9.394;2022-12-18T07:33:23;37.93;;;20.33;;
10467;SDS011;5281;48.878;9.394;2022-12-18T07:35:50;38.37;;;20.07;;
10467;SDS011;5281;48.878;9.394;2022-12-18T07:38:17;28.70;;;15.57;;
10467;SDS011;5281;48.878;9.394;2022-12-18T07:40:43;28.93;;;16.60;;
10467;SDS011;5281;48.878;9.394;2022-12-18T07:43:11;29.80;;;15.97;;
10467;SDS011;5281;48.878;9.394;2022-12-18T07:45:38;27.57;;;15.53;;
10467;SDS011;5281;48.878;9.394;2022-12-18T07:48:05;32.03;;;17.73;;
10467;SDS011;5281;48.878;9.394;2022-12-18T07:50:32;29.43;;;15.10;;
10467;SDS011;5281;48.878;9.394;2022-12-18T07:52:58;26.50;;;14.43;;
10467;SDS011;5281;48.878;9.394;2022-12-18T07:55:28;26.20;;;14.17;;
10467;SDS011;5281;48.878;9.394;2022-12-18T07:57:55;26.27;;;14.40;;
10467;SDS011;5281;48.878;9.394;2022-12-18T08:00:23;27.10;;;15.63;;
10467;SDS011;5281;48.878;9.394;2022-12-18T08:02:49;22.70;;;12.87;;
10467;SDS011;5281;48.878;9.394;2022-12-18T08:05:16;24.80;;;14.07;;
10467;SDS011;5281;48.878;9.394;2022-12-18T08:07:43;32.03;;;16.57;;
10467;SDS011;5281;48.878;9.394;2022-12-18T08:10:10;32.03;;;15.47;;
10467;SDS011;5281;48.878;9.394;2022-12-18T08:12:37;29.80;;;15.83;;
10467;SDS011;5281;48.878;9.394;2022-12-18T08:15:04;27.93;;;14.37;;
10467;SDS011;5281;48.878;9.394;2022-12-18T08:17:32;37.33;;;19.70;;
10467;SDS011;5281;48.878;9.394;2022-12-18T08:19:59;30.70;;;15.83;;
10467;SDS011;5281;48.878;9.394;2022-12-18T08:22:26;28.30;;;15.00;;
10467;SDS011;5281;48.878;9.394;2022-12-18T08:24:52;31.77;;;15.83;;
10467;SDS011;5281;48.878;9.394;2022-12-18T08:27:19;31.57;;;15.97;;
10467;SDS011;5281;48.878;9.394;2022-12-18T08:29:46;30.80;;;16.13;;
10467;SDS011;5281;48.878;9.394;2022-12-18T08:32:13;31.80;;;16.30;;
10467;SDS011;5281;48.878;9.394;2022-12-18T08:34:41;36.07;;;17.93;;
10467;SDS011;5281;48.878;9.394;2022-12-18T08:37:08;34.30;;;19.60;;
10467;SDS011;5281;48.878;9.394;2022-12-18T08:39:34;34.07;;;18.33;;
10467;SDS011;5281;48.878;9.394;2022-12-18T08:42:01;30.43;;;16.77;;
10467;SDS011;5281;48.878;9.394;2022-12-18T08:44:45;33.00;;;17.20;;
10467;SDS011;5281;48.878;9.394;2022-12-18T08:47:12;37.03;;;17.97;;
10467;SDS011;5281;48.878;9.394;2022-12-18T08:49:38;35.77;;;18.27;;
10467;SDS011;5281;48.878;9.394;2022-12-18T08:52:06;35.73;;;18.40;;
10467;SDS011;5281;48.878;9.394;2022-12-18T08:54:33;33.87;;;18.70;;
10467;SDS011;5281;48.878;9.394;2022-12-18T08:57:00;36.73;;;19.60;;
10467;SDS011;5281;48.878;9.394;2022-12-18T08:59:27;35.37;;;18.63;;
10467;SDS011;5281;48.878;9.394;2022-12-18T09:01:54;37.27;;;19.47;;
10467;SDS011;5281;48.878;9.394;2022-12-18T09:04:21;34.27;;;19.43;;
10467;SDS011;5281;48.878;9.394;2022-12-18T09:06:49;37.93;;;20.23;;
10467;SDS011;5281;48.878;9.394;2022-12-18T09:09:15;34.37;;;18.63;;
10467;SDS011;5281;48.878;9.394;2022-12-18T09:11:42;36.70;;;19.67;;
10467;SDS011;5281;48.878;9.394;2022-12-18T09:14:09;41.37;;;21.33;;
10467;SDS011;5281;48.878;9.394;2022-12-18T09:16:36;35.97;;;19.37;;
10467;SDS011;5281;48.878;9.394;2022-12-18T09:19:03;37.77;;;19.20;;
10467;SDS011;5281;48.878;9.394;2022-12-18T09:21:31;33.33;;;18.03;;
10467;SDS011;5281;48.878;9.394;2022-12-18T09:24:01;37.47;;;19.37;;
10467;SDS011;5281;48.878;9.394;2022-12-18T09:26:28;36.70;;;19.67;;
10467;SDS011;5281;48.878;9.394;2022-12-18T09:28:55;37.47;;;18.90;;
10467;SDS011;5281;48.878;9.394;2022-12-18T09:31:22;32.93;;;18.63;;
10467;SDS011;5281;48.878;9.394;2022-12-18T09:33:50;40.10;;;20.10;;
10467;SDS011;5281;48.878;9.394;2022-12-18T09:36:17;30.37;;;17.47;;
10467;SDS011;5281;48.878;9.394;2022-12-18T09:38:45;33.90;;;17.80;;
10467;SDS011;5281;48.878;9.394;2022-12-18T09:41:31;38.47;;;17.83;;
10467;SDS011;5281;48.878;9.394;2022-12-18T09:44:05;32.17;;;17.33;;
10467;SDS011;5281;48.878;9.394;2022-12-18T09:46:43;33.57;;;17.77;;
10467;SDS011;5281;48.878;9.394;2022-12-18T09:49:14;32.50;;;16.83;;
10467;SDS011;5281;48.878;9.394;2022-12-18T09:51:45;32.73;;;15.83;;
10467;SDS011;5281;48.878;9.394;2022-12-18T09:54:16;38.70;;;17.77;;
10467;SDS011;5281;48.878;9.394;2022-12-18T09:56:49;33.30;;;16.67;;
10467;SDS011;5281;48.878;9.394;2022-12-18T09:59:18;30.67;;;16.10;;
10467;SDS011;5281;48.878;9.394;2022-12-18T10:01:49;32.90;;;16.83;;
10467;SDS011;5281;48.878;9.394;2022-12-18T10:04:16;33.70;;;17.77;;
10467;SDS011;5281;48.878;9.394;2022-12-18T10:06:44;32.00;;;17.30;;
10467;SDS011;5281;48.878;9.394;2022-12-18T10:09:18;34.13;;;17.83;;
10467;SDS011;5281;48.878;9.394;2022-12-18T10:11:57;33.50;;;16.90;;
10467;SDS011;5281;48.878;9.394;2022-12-18T10:14:34;35.90;;;17.73;;
10467;SDS011;5281;48.878;9.394;2022-12-18T10:17:08;35.67;;;17.93;;
10467;SDS011;5281;48.878;9.394;2022-12-18T10:19:44;39.13;;;17.60;;
10467;SDS011;5281;48.878;9.394;2022-12-18T10:22:19;33.10;;;18.70;;
10467;SDS011;5281;48.878;9.394;2022-12-18T10:24:53;27.07;;;14.07;;
10467;SDS011;5281;48.878;9.394;2022-12-18T10:27:27;34.17;;;16.90;;
10467;SDS011;5281;48.878;9.394;2022-12-18T10:29:55;30.00;;;16.70;;
10467;SDS011;5281;48.878;9.394;2022-12-18T10:32:23;31.03;;;16.80;;
10467;SDS011;5281;48.878;9.394;2022-12-18T10:34:52;29.13;;;16.50;;
10467;SDS011;5281;48.878;9.394;2022-12-18T10:37:21;33.60;;;16.93;;
10467;SDS011;5281;48.878;9.394;2022-12-18T10:40:07;34.73;;;17.73;;
10467;SDS011;5281;48.878;9.394;2022-12-18T10:42:38;30.77;;;16.67;;
10467;SDS011;5281;48.878;9.394;2022-12-18T10:45:09;33.33;;;17.07;;
10467;SDS011;5281;48.878;9.394;2022-12-18T10:47:40;34.03;;;17.37;;
10467;SDS011;5281;48.878;9.394;2022-12-18T10:50:14;32.40;;;17.07;;
10467;SDS011;5281;48.878;9.394;2022-12-18T10:52:52;37.93;;;17.87;;
10467;SDS011;5281;48.878;9.394;2022-12-18T10:55:20;35.57;;;18.13;;
10467;SDS011;5281;48.878;9.394;2022-12-18T10:57:49;31.10;;;17.83;;
10467;SDS011;5281;48.878;9.394;2022-12-18T11:00:21;30.30;;;16.97;;
10467;SDS011;5281;48.878;9.394;2022-12-18T11:02:50;31.70;;;16.40;;
10467;SDS011;5281;48.878;9.394;2022-12-18T11:05:27;32.40;;;16.77;;
10467;SDS011;5281;48.878;9.394;2022-12-18T11:07:56;34.97;;;18.63;;
10467;SDS011;5281;48.878;9.394;2022-12-18T11:10:26;29.70;;;16.63;;
10467;SDS011;5281;48.878;9.394;2022-12-18T11:12:57;33.03;;;16.57;;
10467;SDS011;5281;48.878;9.394;2022-12-18T11:15:39;32.17;;;17.23;;
10467;SDS011;5281;48.878;9.394;2022-12-18T11:18:14;31.00;;;16.30;;
10467;SDS011;5281;48.878;9.394;2022-12-18T11:20:44;34.57;;;16.93;;
10467;SDS011;5281;48.878;9.394;2022-12-18T11:23:17;30.40;;;16.93;;
10467;SDS011;5281;48.878;9.394;2022-12-18T11:25:51;30.73;;;16.03;;
10467;SDS011;5281;48.878;9.394;2022-12-18T11:28:36;32.20;;;17.27;;
10467;SDS011;5281;48.878;9.394;2022-12-18T11:33:54;28.90;;;14.70;;
10467;SDS011;5281;48.878;9.394;2022-12-18T11:36:25;33.03;;;17.60;;
10467;SDS011;5281;48.878;9.394;2022-12-18T11:38:57;33.77;;;17.60;;
10467;SDS011;5281;48.878;9.394;2022-12-18T11:41:29;28.37;;;16.57;;
10467;SDS011;5281;48.878;9.394;2022-12-18T11:44:20;29.20;;;16.40;;
10467;SDS011;5281;48.878;9.394;2022-12-18T11:46:53;33.30;;;16.67;;
10467;SDS011;5281;48.878;9.394;2022-12-18T11:49:24;29.47;;;15.93;;
10467;SDS011;5281;48.878;9.394;2022-12-18T11:51:55;29.13;;;15.87;;
10467;SDS011;5281;48.878;9.394;2022-12-18T11:54:29;29.37;;;16.17;;
10467;SDS011;5281;48.878;9.394;2022-12-18T11:56:58;29.00;;;16.73;;
10467;SDS011;5281;48.878;9.394;2022-12-18T11:59:33;29.93;;;16.77;;
10467;SDS011;5281;48.878;9.394;2022-12-18T12:02:12;29.17;;;16.83;;
10467;SDS011;5281;48.878;9.394;2022-12-18T12:04:58;28.00;;;13.63;;
10467;SDS011;5281;48.878;9.394;2022-12-18T12:07:37;29.97;;;16.73;;
10467;SDS011;5281;48.878;9.394;2022-12-18T12:10:16;26.47;;;14.30;;
10467;SDS011;5281;48.878;9.394;2022-12-18T12:12:55;28.67;;;15.03;;
10467;SDS011;5281;48.878;9.394;2022-12-18T12:15:34;26.70;;;14.40;;
10467;SDS011;5281;48.878;9.394;2022-12-18T12:18:13;29.80;;;15.93;;
10467;SDS011;5281;48.878;9.394;2022-12-18T12:20:49;29.70;;;15.80;;
10467;SDS011;5281;48.878;9.394;2022-12-18T12:23:26;29.67;;;15.90;;
10467;SDS011;5281;48.878;9.394;2022-12-18T12:26:01;27.47;;;16.17;;
10467;SDS011;5281;48.878;9.394;2022-12-18T12:28:37;32.77;;;19.00;;
10467;SDS011;5281;48.878;9.394;2022-12-18T12:31:21;31.00;;;16.40;;
10467;SDS011;5281;48.878;9.394;2022-12-18T12:33:58;30.00;;;16.13;;
10467;SDS011;5281;48.878;9.394;2022-12-18T12:36:31;28.83;;;16.57;;
10467;SDS011;5281;48.878;9.394;2022-12-18T12:39:06;26.93;;;15.63;;
10467;SDS011;5281;48.878;9.394;2022-12-18T12:41:37;29.00;;;16.87;;
10467;SDS011;5281;48.878;9.394;2022-12-18T12:44:25;29.47;;;16.10;;
10467;SDS011;5281;48.878;9.394;2022-12-18T12:46:59;31.03;;;17.37;;
10467;SDS011;5281;48.878;9.394;2022-12-18T12:49:38;30.07;;;16.43;;
10467;SDS011;5281;48.878;9.394;2022-12-18T12:52:13;31.67;;;17.80;;
10467;SDS011;5281;48.878;9.394;2022-12-18T12:54:43;30.73;;;15.93;;
10467;SDS011;5281;48.878;9.394;2022-12-18T12:57:11;32.90;;;17.40;;
10467;SDS011;5281;48.878;9.394;2022-12-18T12:59:47;30.73;;;16.70;;
10467;SDS011;5281;48.878;9.394;2022-12-18T13:02:20;29.53;;;15.57;;
10467;SDS011;5281;48.878;9.394;2022-12-18T13:04:56;29.67;;;16.60;;
10467;SDS011;5281;48.878;9.394;2022-12-18T13:07:29;28.77;;;17.00;;
10467;SDS011;5281;48.878;9.394;2022-12-18T13:10:11;28.40;;;15.83;;
10467;SDS011;5281;48.878;9.394;2022-12-18T13:12:50;27.67;;;15.73;;
10467;SDS011;5281;48.878;9.394;2022-12-18T13:15:26;26.77;;;15.80;;
10467;SDS011;5281;48.878;9.394;2022-12-18T13:18:16;30.43;;;16.90;;
10467;SDS011;5281;48.878;9.394;2022-12-18T13:20:45;27.87;;;16.20;;
10467;SDS011;5281;48.878;9.394;2022-12-18T13:23:26;29.33;;;16.80;;
10467;SDS011;5281;48.878;9.394;2022-12-18T13:28:57;29.97;;;16.93;;
10467;SDS011;5281;48.878;9.394;2022-12-18T13:34:35;29.13;;;16.67;;
10467;SDS011;5281;48.878;9.394;2022-12-18T13:43:15;30.40;;;15.97;;
10467;SDS011;5281;48.878;9.394;2022-12-18T13:45:49;26.27;;;15.53;;
10467;SDS011;5281;48.878;9.394;2022-12-18T13:48:26;28.87;;;16.67;;
10467;SDS011;5281;48.878;9.394;2022-12-18T13:50:58;28.50;;;16.20;;
10467;SDS011;5281;48.878;9.394;2022-12-18T13:53:29;28.43;;;15.93;;
10467;SDS011;5281;48.878;9.394;2022-12-18T13:55:59;28.50;;;15.87;;
10467;SDS011;5281;48.878;9.394;2022-12-18T13:58:26;28.20;;;15.93;;
10467;SDS011;5281;48.878;9.394;2022-12-18T14:00:53;31.73;;;17.43;;
10467;SDS011;5281;48.878;9.394;2022-12-18T14:03:21;29.30;;;17.43;;
10467;SDS011;5281;48.878;9.394;2022-12-18T14:05:55;30.67;;;15.77;;
10467;SDS011;5281;48.878;9.394;2022-12-18T14:08:32;31.00;;;16.87;;
10467;SDS011;5281;48.878;9.394;2022-12-18T14:11:01;25.57;;;15.87;;
10467;SDS011;5281;48.878;9.394;2022-12-18T14:13:32;28.00;;;16.57;;
10467;SDS011;5281;48.878;9.394;2022-12-18T14:16:03;29.70;;;16.80;;
10467;SDS011;5281;48.878;9.394;2022-12-18T14:18:34;29.23;;;17.33;;
10467;SDS011;5281;48.878;9.394;2022-12-18T14:21:14;27.23;;;15.47;;
10467;SDS011;5281;48.878;9.394;2022-12-18T14:23:44;25.40;;;14.77;;
10467;SDS011;5281;48.878;9.394;2022-12-18T14:26:19;28.43;;;16.57;;
10467;SDS011;5281;48.878;9.394;2022-12-18T14:28:48;28.63;;;16.57;;
10467;SDS011;5281;48.878;9.394;2022-12-18T14:31:19;29.67;;;17.53;;
10467;SDS011;5281;48.878;9.394;2022-12-18T14:33:46;27.53;;;16.37;;
10467;SDS011;5281;48.878;9.394;2022-12-18T14:36:17;30.13;;;17.40;;
10467;SDS011;5281;48.878;9.394;2022-12-18T14:38:47;28.00;;;15.67;;
10467;SDS011;5281;48.878;9.394;2022-12-18T14:41:16;27.43;;;16.03;;
10467;SDS011;5281;48.878;9.394;2022-12-18T14:43:45;29.17;;;17.00;;
10467;SDS011;5281;48.878;9.394;2022-12-18T14:46:30;28.83;;;16.10;;
10467;SDS011;5281;48.878;9.394;2022-12-18T14:49:01;28.03;;;16.23;;
10467;SDS011;5281;48.878;9.394;2022-12-18T14:51:32;25.77;;;15.67;;
10467;SDS011;5281;48.878;9.394;2022-12-18T14:54:01;28.07;;;15.80;;
10467;SDS011;5281;48.878;9.394;2022-12-18T14:56:29;27.57;;;15.33;;
10467;SDS011;5281;48.878;9.394;2022-12-18T14:58:58;26.30;;;15.20;;
10467;SDS011;5281;48.878;9.394;2022-12-18T15:01:28;27.10;;;15.03;;
10467;SDS011;5281;48.878;9.394;2022-12-18T15:03:57;25.77;;;15.07;;
10467;SDS011;5281;48.878;9.394;2022-12-18T15:06:27;30.07;;;14.70;;